sensor_id;sensor_type;location;lat;lon;timestamp;pressure;altitude;pressure_sealevel;temperature;humidity
70546;BME280;58098;51.680;5.134;2022-11-20T00:01:17;101446.47;;;-2.48;100.00
70546;BME280;58098;51.680;5.134;2022-11-20T00:03:44;101448.22;;;-2.50;100.00
70546;BME280;58098;51.680;5.134;2022-11-20T00:06:12;101455.03;;;-2.49;100.00
70546;BME280;58098;51.680;5.134;2022-11-20T00:08:38;101451.75;;;-2.57;100.00
70546;BME280;58098;51.680;5.134;2022-11-20T00:11:04;101458.47;;;-2.53;100.00
70546;BME280;58098;51.680;5.134;2022-11-20T00:13:30;101456.94;;;-2.61;100.00
70546;BME280;58098;51.680;5.134;2022-11-20T00:15:57;101421.50;;;-2.84;100.00
70546;BME280;58098;51.680;5.134;2022-11-20T00:18:22;101441.03;;;-2.80;100.00
70546;BME280;58098;51.680;5.134;2022-11-20T00:20:47;101453.69;;;-2.74;100.00
70546;BME280;58098;51.680;5.134;2022-11-20T00:23:13;101441.94;;;-2.84;100.00
70546;BME280;58098;51.680;5.134;2022-11-20T00:25:38;101437.66;;;-2.82;100.00
70546;BME280;58098;51.680;5.134;2022-11-20T00:28:03;101461.41;;;-2.76;100.00
70546;BME280;58098;51.680;5.134;2022-11-20T00:30:29;101461.47;;;-2.82;100.00
70546;BME280;58098;51.680;5.134;2022-11-20T00:32:56;101446.28;;;-2.91;100.00
70546;BME280;58098;51.680;5.134;2022-11-20T00:35:22;101448.03;;;-2.94;100.00
70546;BME280;58098;51.680;5.134;2022-11-20T00:37:47;101451.53;;;-3.00;100.00
70546;BME280;58098;51.680;5.134;2022-11-20T00:40:12;101450.69;;;-3.00;100.00
70546;BME280;58098;51.680;5.134;2022-11-20T00:42:38;101449.84;;;-3.01;100.00
70546;BME280;58098;51.680;5.134;2022-11-20T00:45:03;101462.56;;;-2.99;100.00
70546;BME280;58098;51.680;5.134;2022-11-20T00:47:29;101460.91;;;-3.00;100.00
70546;BME280;58098;51.680;5.134;2022-11-20T00:49:54;101453.38;;;-3.09;100.00
70546;BME280;58098;51.680;5.134;2022-11-20T00:52:19;101447.47;;;-3.14;100.00
70546;BME280;58098;51.680;5.134;2022-11-20T00:54:45;101433.09;;;-3.20;100.00
70546;BME280;58098;51.680;5.134;2022-11-20T00:57:10;101436.47;;;-3.18;100.00
70546;BME280;58098;51.680;5.134;2022-11-20T00:59:35;101433.91;;;-3.16;100.00
70546;BME280;58098;51.680;5.134;2022-11-20T01:02:01;101438.13;;;-3.15;100.00
70546;BME280;58098;51.680;5.134;2022-11-20T01:04:26;101456.75;;;-3.09;100.00
70546;BME280;58098;51.680;5.134;2022-11-20T01:06:51;101442.44;;;-3.20;100.00
70546;BME280;58098;51.680;5.134;2022-11-20T01:09:17;101438.25;;;-3.26;100.00
70546;BME280;58098;51.680;5.134;2022-11-20T01:11:43;101436.59;;;-3.27;100.00
70546;BME280;58098;51.680;5.134;2022-11-20T01:14:14;101440.03;;;-3.29;100.00
70546;BME280;58098;51.680;5.134;2022-11-20T01:16:43;101440.09;;;-3.34;100.00
70546;BME280;58098;51.680;5.134;2022-11-20T01:19:12;101445.88;;;-3.23;100.00
70546;BME280;58098;51.680;5.134;2022-11-20T01:21:40;101436.59;;;-3.28;100.00
70546;BME280;58098;51.680;5.134;2022-11-20T01:24:07;101439.91;;;-3.20;100.00
70546;BME280;58098;51.680;5.134;2022-11-20T01:26:35;101414.66;;;-3.40;100.00
70546;BME280;58098;51.680;5.134;2022-11-20T01:29:02;101439.22;;;-3.35;100.00
70546;BME280;58098;51.680;5.134;2022-11-20T01:31:31;101451.03;;;-3.27;100.00
70546;BME280;58098;51.680;5.134;2022-11-20T01:33:59;101455.28;;;-3.28;100.00
70546;BME280;58098;51.680;5.134;2022-11-20T01:36:27;101454.50;;;-3.31;100.00
70546;BME280;58098;51.680;5.134;2022-11-20T01:38:57;101461.34;;;-3.35;100.00
70546;BME280;58098;51.680;5.134;2022-11-20T01:41:25;101445.31;;;-3.45;100.00
70546;BME280;58098;51.680;5.134;2022-11-20T01:44:11;101454.63;;;-3.42;100.00
70546;BME280;58098;51.680;5.134;2022-11-20T01:46:40;101455.47;;;-3.42;100.00
70546;BME280;58098;51.680;5.134;2022-11-20T01:51:42;101435.13;;;-3.48;100.00
70546;BME280;58098;51.680;5.134;2022-11-20T01:54:13;101430.91;;;-3.49;100.00
70546;BME280;58098;51.680;5.134;2022-11-20T01:56:44;101425.00;;;-3.51;100.00
70546;BME280;58098;51.680;5.134;2022-11-20T01:59:12;101415.59;;;-3.46;100.00
70546;BME280;58098;51.680;5.134;2022-11-20T02:01:38;101439.31;;;-3.42;100.00
70546;BME280;58098;51.680;5.134;2022-11-20T02:04:05;101432.53;;;-3.42;100.00
70546;BME280;58098;51.680;5.134;2022-11-20T02:06:40;101424.94;;;-3.48;100.00
70546;BME280;58098;51.680;5.134;2022-11-20T02:09:05;101438.47;;;-3.43;100.00
70546;BME280;58098;51.680;5.134;2022-11-20T02:11:31;101441.91;;;-3.44;100.00
70546;BME280;58098;51.680;5.134;2022-11-20T02:13:57;101431.84;;;-3.57;100.00
70546;BME280;58098;51.680;5.134;2022-11-20T02:16:25;101426.81;;;-3.60;100.00
70546;BME280;58098;51.680;5.134;2022-11-20T02:18:53;101429.34;;;-3.59;100.00
70546;BME280;58098;51.680;5.134;2022-11-20T02:21:24;101442.97;;;-3.61;100.00
70546;BME280;58098;51.680;5.134;2022-11-20T02:24:18;101420.13;;;-3.72;100.00
70546;BME280;58098;51.680;5.134;2022-11-20T02:26:50;101429.47;;;-3.71;100.00
70546;BME280;58098;51.680;5.134;2022-11-20T02:29:23;101437.94;;;-3.69;100.00
70546;BME280;58098;51.680;5.134;2022-11-20T02:31:50;101415.06;;;-3.73;100.00
70546;BME280;58098;51.680;5.134;2022-11-20T02:34:16;101416.75;;;-3.74;100.00
70546;BME280;58098;51.680;5.134;2022-11-20T02:36:42;101415.06;;;-3.73;100.00
70546;BME280;58098;51.680;5.134;2022-11-20T02:39:08;101434.50;;;-3.65;100.00
70546;BME280;58098;51.680;5.134;2022-11-20T02:41:36;101419.25;;;-3.68;100.00
70546;BME280;58098;51.680;5.134;2022-11-20T02:44:03;101430.19;;;-3.60;100.00
70546;BME280;58098;51.680;5.134;2022-11-20T02:46:28;101431.91;;;-3.60;100.00
70546;BME280;58098;51.680;5.134;2022-11-20T02:48:54;101420.06;;;-3.66;100.00
70546;BME280;58098;51.680;5.134;2022-11-20T02:51:19;101411.63;;;-3.72;100.00
70546;BME280;58098;51.680;5.134;2022-11-20T02:53:44;101395.53;;;-3.73;100.00
70546;BME280;58098;51.680;5.134;2022-11-20T02:56:10;101419.25;;;-3.68;100.00
70546;BME280;58098;51.680;5.134;2022-11-20T02:58:35;101409.94;;;-3.72;100.00
70546;BME280;58098;51.680;5.134;2022-11-20T03:01:00;101416.66;;;-3.65;100.00
70546;BME280;58098;51.680;5.134;2022-11-20T03:03:26;101402.28;;;-3.72;100.00
70546;BME280;58098;51.680;5.134;2022-11-20T03:05:51;101400.47;;;-3.62;100.00
70546;BME280;58098;51.680;5.134;2022-11-20T03:08:16;101406.28;;;-3.53;100.00
70546;BME280;58098;51.680;5.134;2022-11-20T03:10:42;101410.56;;;-3.53;100.00
70546;BME280;58098;51.680;5.134;2022-11-20T03:13:07;101409.63;;;-3.48;100.00
70546;BME280;58098;51.680;5.134;2022-11-20T03:15:32;101403.75;;;-3.53;100.00
70546;BME280;58098;51.680;5.134;2022-11-20T03:17:58;101404.63;;;-3.54;100.00
70546;BME280;58098;51.680;5.134;2022-11-20T03:20:23;101393.53;;;-3.53;100.00
70546;BME280;58098;51.680;5.134;2022-11-20T03:22:49;101402.88;;;-3.49;100.00
70546;BME280;58098;51.680;5.134;2022-11-20T03:25:14;101390.16;;;-3.52;100.00
70546;BME280;58098;51.680;5.134;2022-11-20T03:27:39;101398.66;;;-3.53;100.00
70546;BME280;58098;51.680;5.134;2022-11-20T03:30:05;101385.97;;;-3.56;100.00
70546;BME280;58098;51.680;5.134;2022-11-20T03:32:31;101385.06;;;-3.55;100.00
70546;BME280;58098;51.680;5.134;2022-11-20T03:34:56;101390.22;;;-3.58;100.00
70546;BME280;58098;51.680;5.134;2022-11-20T03:37:21;101388.56;;;-3.60;100.00
70546;BME280;58098;51.680;5.134;2022-11-20T03:39:47;101366.59;;;-3.72;100.00
70546;BME280;58098;51.680;5.134;2022-11-20T03:42:12;101367.38;;;-3.67;100.00
70546;BME280;58098;51.680;5.134;2022-11-20T03:45:04;101362.38;;;-3.74;100.00
70546;BME280;58098;51.680;5.134;2022-11-20T03:47:29;101363.16;;;-3.69;100.00
70546;BME280;58098;51.680;5.134;2022-11-20T03:49:55;101349.66;;;-3.76;100.00
70546;BME280;58098;51.680;5.134;2022-11-20T03:52:20;101364.91;;;-3.71;100.00
70546;BME280;58098;51.680;5.134;2022-11-20T03:54:45;101354.81;;;-3.82;100.00
70546;BME280;58098;51.680;5.134;2022-11-20T03:57:10;101353.16;;;-3.83;100.00
70546;BME280;58098;51.680;5.134;2022-11-20T03:59:36;101359.00;;;-3.75;100.00
70546;BME280;58098;51.680;5.134;2022-11-20T04:02:01;101347.28;;;-3.88;100.00
70546;BME280;58098;51.680;5.134;2022-11-20T04:04:26;101359.06;;;-3.81;100.00
70546;BME280;58098;51.680;5.134;2022-11-20T04:06:52;101332.91;;;-3.96;100.00
70546;BME280;58098;51.680;5.134;2022-11-20T04:09:17;101365.00;;;-3.82;100.00
70546;BME280;58098;51.680;5.134;2022-11-20T04:11:42;101358.25;;;-3.84;100.00
70546;BME280;58098;51.680;5.134;2022-11-20T04:14:13;101354.88;;;-3.85;100.00
70546;BME280;58098;51.680;5.134;2022-11-20T04:16:39;101353.25;;;-3.90;100.00
70546;BME280;58098;51.680;5.134;2022-11-20T04:19:06;101346.44;;;-3.91;100.00
70546;BME280;58098;51.680;5.134;2022-11-20T04:21:31;101348.16;;;-3.93;100.00
70546;BME280;58098;51.680;5.134;2022-11-20T04:23:57;101355.91;;;-3.99;100.00
70546;BME280;58098;51.680;5.134;2022-11-20T04:26:24;101352.59;;;-4.08;100.00
70546;BME280;58098;51.680;5.134;2022-11-20T04:28:50;101351.75;;;-4.11;100.00
70546;BME280;58098;51.680;5.134;2022-11-20T04:31:18;101359.31;;;-4.04;100.00
70546;BME280;58098;51.680;5.134;2022-11-20T04:33:44;101335.75;;;-4.21;100.00
70546;BME280;58098;51.680;5.134;2022-11-20T04:36:15;101335.78;;;-4.22;100.00
70546;BME280;58098;51.680;5.134;2022-11-20T04:38:41;101342.50;;;-4.18;100.00
70546;BME280;58098;51.680;5.134;2022-11-20T04:41:08;101325.59;;;-4.25;100.00
70546;BME280;58098;51.680;5.134;2022-11-20T04:43:36;101338.28;;;-4.19;100.00
70546;BME280;58098;51.680;5.134;2022-11-20T04:46:01;101317.19;;;-4.32;100.00
70546;BME280;58098;51.680;5.134;2022-11-20T04:48:28;101318.91;;;-4.32;100.00
70546;BME280;58098;51.680;5.134;2022-11-20T04:50:53;101329.09;;;-4.31;100.00
70546;BME280;58098;51.680;5.134;2022-11-20T04:53:19;101334.19;;;-4.32;100.00
70546;BME280;58098;51.680;5.134;2022-11-20T04:55:45;101332.44;;;-4.29;100.00
70546;BME280;58098;51.680;5.134;2022-11-20T04:58:11;101327.34;;;-4.27;100.00
70546;BME280;58098;51.680;5.134;2022-11-20T05:00:36;101319.66;;;-4.26;100.00
70546;BME280;58098;51.680;5.134;2022-11-20T05:03:01;101318.00;;;-4.28;100.00
70546;BME280;58098;51.680;5.134;2022-11-20T05:05:27;101329.84;;;-4.24;100.00
70546;BME280;58098;51.680;5.134;2022-11-20T05:07:52;101324.75;;;-4.26;100.00
70546;BME280;58098;51.680;5.134;2022-11-20T05:10:18;101318.03;;;-4.33;100.00
70546;BME280;58098;51.680;5.134;2022-11-20T05:12:43;101317.22;;;-4.35;100.00
70546;BME280;58098;51.680;5.134;2022-11-20T05:15:09;101313.91;;;-4.43;100.00
70546;BME280;58098;51.680;5.134;2022-11-20T05:17:34;101319.78;;;-4.36;100.00
70546;BME280;58098;51.680;5.134;2022-11-20T05:20:00;101291.13;;;-4.53;100.00
70546;BME280;58098;51.680;5.134;2022-11-20T05:22:25;101309.72;;;-4.45;100.00
70546;BME280;58098;51.680;5.134;2022-11-20T05:24:50;101311.34;;;-4.38;100.00
70546;BME280;58098;51.680;5.134;2022-11-20T05:27:16;101308.00;;;-4.45;100.00
70546;BME280;58098;51.680;5.134;2022-11-20T05:29:41;101308.03;;;-4.46;100.00
70546;BME280;58098;51.680;5.134;2022-11-20T05:32:06;101312.28;;;-4.50;100.00
70546;BME280;58098;51.680;5.134;2022-11-20T05:34:34;101311.50;;;-4.56;100.00
70546;BME280;58098;51.680;5.134;2022-11-20T05:37:00;101309.81;;;-4.57;100.00
70546;BME280;58098;51.680;5.134;2022-11-20T05:39:25;101313.25;;;-4.60;100.00
70546;BME280;58098;51.680;5.134;2022-11-20T05:41:50;101314.97;;;-4.60;100.00
70546;BME280;58098;51.680;5.134;2022-11-20T05:44:36;101306.53;;;-4.69;100.00
70546;BME280;58098;51.680;5.134;2022-11-20T05:47:01;101312.47;;;-4.70;100.00
70546;BME280;58098;51.680;5.134;2022-11-20T05:49:26;101309.97;;;-4.73;100.00
70546;BME280;58098;51.680;5.134;2022-11-20T05:51:52;101307.41;;;-4.71;100.00
70546;BME280;58098;51.680;5.134;2022-11-20T05:54:17;101325.13;;;-4.60;100.00
70546;BME280;58098;51.680;5.134;2022-11-20T05:56:42;101321.78;;;-4.65;100.00
70546;BME280;58098;51.680;5.134;2022-11-20T05:59:08;101331.06;;;-4.58;100.00
70546;BME280;58098;51.680;5.134;2022-11-20T06:01:33;101335.25;;;-4.57;100.00
70546;BME280;58098;51.680;5.134;2022-11-20T06:04:00;101328.47;;;-4.55;100.00
70546;BME280;58098;51.680;5.134;2022-11-20T06:06:26;101337.78;;;-4.53;100.00
70546;BME280;58098;51.680;5.134;2022-11-20T06:08:51;101316.66;;;-4.61;100.00
70546;BME280;58098;51.680;5.134;2022-11-20T06:11:17;101313.28;;;-4.64;100.00
70546;BME280;58098;51.680;5.134;2022-11-20T06:13:43;101327.59;;;-4.54;100.00
70546;BME280;58098;51.680;5.134;2022-11-20T06:16:10;101320.06;;;-4.63;100.00
70546;BME280;58098;51.680;5.134;2022-11-20T06:18:37;101327.56;;;-4.48;100.00
70546;BME280;58098;51.680;5.134;2022-11-20T06:21:05;101326.66;;;-4.44;100.00
70546;BME280;58098;51.680;5.134;2022-11-20T06:23:32;101312.28;;;-4.48;100.00
70546;BME280;58098;51.680;5.134;2022-11-20T06:26:01;101302.97;;;-4.52;100.00
70546;BME280;58098;51.680;5.134;2022-11-20T06:28:27;101293.69;;;-4.56;100.00
70546;BME280;58098;51.680;5.134;2022-11-20T06:30:52;101281.03;;;-4.62;100.00
70546;BME280;58098;51.680;5.134;2022-11-20T06:33:17;101309.72;;;-4.47;100.00
70546;BME280;58098;51.680;5.134;2022-11-20T06:35:43;101310.59;;;-4.48;100.00
70546;BME280;58098;51.680;5.134;2022-11-20T06:38:08;101295.38;;;-4.55;100.00
70546;BME280;58098;51.680;5.134;2022-11-20T06:40:33;101302.94;;;-4.49;100.00
70546;BME280;58098;51.680;5.134;2022-11-20T06:42:58;101304.66;;;-4.50;100.00
70546;BME280;58098;51.680;5.134;2022-11-20T06:45:24;101293.66;;;-4.53;100.00
70546;BME280;58098;51.680;5.134;2022-11-20T06:47:49;101296.22;;;-4.53;100.00
70546;BME280;58098;51.680;5.134;2022-11-20T06:50:14;101296.22;;;-4.53;100.00
70546;BME280;58098;51.680;5.134;2022-11-20T06:52:40;101303.78;;;-4.47;100.00
70546;BME280;58098;51.680;5.134;2022-11-20T06:55:05;101294.50;;;-4.54;100.00
70546;BME280;58098;51.680;5.134;2022-11-20T06:57:31;101312.16;;;-4.36;100.00
70546;BME280;58098;51.680;5.134;2022-11-20T06:59:56;101305.28;;;-4.30;100.00
70546;BME280;58098;51.680;5.134;2022-11-20T07:02:21;101298.53;;;-4.32;100.00
70546;BME280;58098;51.680;5.134;2022-11-20T07:04:47;101294.22;;;-4.27;100.00
70546;BME280;58098;51.680;5.134;2022-11-20T07:07:12;101309.34;;;-4.12;100.00
70546;BME280;58098;51.680;5.134;2022-11-20T07:09:37;101290.72;;;-4.17;100.00
70546;BME280;58098;51.680;5.134;2022-11-20T07:12:03;101294.75;;;-4.01;100.00
70546;BME280;58098;51.680;5.134;2022-11-20T07:14:28;101297.25;;;-3.96;100.00
70546;BME280;58098;51.680;5.134;2022-11-20T07:16:54;101283.75;;;-4.02;100.00
70546;BME280;58098;51.680;5.134;2022-11-20T07:19:19;101250.75;;;-4.14;100.00
70546;BME280;58098;51.680;5.134;2022-11-20T07:21:44;101288.72;;;-3.94;100.00
70546;BME280;58098;51.680;5.134;2022-11-20T07:24:09;101296.34;;;-3.91;100.00
70546;BME280;58098;51.680;5.134;2022-11-20T07:26:35;101299.53;;;-3.77;100.00
70546;BME280;58098;51.680;5.134;2022-11-20T07:29:00;101276.66;;;-3.80;100.00
70546;BME280;58098;51.680;5.134;2022-11-20T07:31:25;101280.00;;;-3.75;100.00
70546;BME280;58098;51.680;5.134;2022-11-20T07:33:51;101292.44;;;-3.55;100.00
70546;BME280;58098;51.680;5.134;2022-11-20T07:36:16;101270.31;;;-3.52;100.00
70546;BME280;58098;51.680;5.134;2022-11-20T07:38:41;101276.06;;;-3.41;100.00
70546;BME280;58098;51.680;5.134;2022-11-20T07:41:06;101272.53;;;-3.30;100.00
70546;BME280;58098;51.680;5.134;2022-11-20T07:43:32;101285.94;;;-3.18;100.00
70546;BME280;58098;51.680;5.134;2022-11-20T07:45:58;101276.53;;;-3.14;100.00
70546;BME280;58098;51.680;5.134;2022-11-20T07:48:24;101277.22;;;-3.06;100.00
70546;BME280;58098;51.680;5.134;2022-11-20T07:50:53;101289.78;;;-2.94;100.00
70546;BME280;58098;51.680;5.134;2022-11-20T07:53:19;101290.56;;;-2.89;100.00
70546;BME280;58098;51.680;5.134;2022-11-20T07:55:46;101280.31;;;-2.86;100.00
70546;BME280;58098;51.680;5.134;2022-11-20T07:58:12;101288.66;;;-2.77;100.00
70546;BME280;58098;51.680;5.134;2022-11-20T08:00:38;101289.41;;;-2.72;100.00
70546;BME280;58098;51.680;5.134;2022-11-20T08:03:04;101284.25;;;-2.70;100.00
70546;BME280;58098;51.680;5.134;2022-11-20T08:05:30;101284.31;;;-2.72;100.00
70546;BME280;58098;51.680;5.134;2022-11-20T08:07:55;101290.09;;;-2.62;100.00
70546;BME280;58098;51.680;5.134;2022-11-20T08:10:20;101279.00;;;-2.61;100.00
70546;BME280;58098;51.680;5.134;2022-11-20T08:12:50;101277.22;;;-2.57;100.00
70546;BME280;58098;51.680;5.134;2022-11-20T08:15:35;101290.75;;;-2.51;100.00
70546;BME280;58098;51.680;5.134;2022-11-20T08:18:11;101266.19;;;-2.58;100.00
70546;BME280;58098;51.680;5.134;2022-11-20T08:20:37;101282.97;;;-2.45;100.00
70546;BME280;58098;51.680;5.134;2022-11-20T08:23:05;101283.63;;;-2.35;100.00
70546;BME280;58098;51.680;5.134;2022-11-20T08:25:31;101298.72;;;-2.22;100.00
70546;BME280;58098;51.680;5.134;2022-11-20T08:27:58;101300.94;;;-2.07;100.00
70546;BME280;58098;51.680;5.134;2022-11-20T08:30:24;101292.31;;;-2.01;100.00
70546;BME280;58098;51.680;5.134;2022-11-20T08:32:49;101293.09;;;-1.97;100.00
70546;BME280;58098;51.680;5.134;2022-11-20T08:35:15;101287.06;;;-1.93;100.00
70546;BME280;58098;51.680;5.134;2022-11-20T08:37:40;101286.09;;;-1.89;100.00
70546;BME280;58098;51.680;5.134;2022-11-20T08:40:09;101283.38;;;-1.80;100.00
70546;BME280;58098;51.680;5.134;2022-11-20T08:42:35;101285.81;;;-1.76;100.00
70546;BME280;58098;51.680;5.134;2022-11-20T08:45:00;101275.44;;;-1.70;100.00
70546;BME280;58098;51.680;5.134;2022-11-20T08:47:25;101281.19;;;-1.60;100.00
70546;BME280;58098;51.680;5.134;2022-11-20T08:49:50;101274.41;;;-1.61;100.00
70546;BME280;58098;51.680;5.134;2022-11-20T08:52:16;101274.22;;;-1.52;100.00
70546;BME280;58098;51.680;5.134;2022-11-20T08:54:41;101273.25;;;-1.48;100.00
70546;BME280;58098;51.680;5.134;2022-11-20T08:57:06;101280.59;;;-1.33;100.00
70546;BME280;58098;51.680;5.134;2022-11-20T08:59:31;101280.47;;;-1.27;100.00
70546;BME280;58098;51.680;5.134;2022-11-20T09:01:57;101280.28;;;-1.21;100.00
70546;BME280;58098;51.680;5.134;2022-11-20T09:04:23;101271.69;;;-1.17;100.00
70546;BME280;58098;51.680;5.134;2022-11-20T09:06:48;101274.75;;;-1.03;100.00
70546;BME280;58098;51.680;5.134;2022-11-20T09:09:16;101261.16;;;-1.05;100.00
70546;BME280;58098;51.680;5.134;2022-11-20T09:11:42;101279.56;;;-0.91;100.00
70546;BME280;58098;51.680;5.134;2022-11-20T09:14:07;101257.38;;;-0.92;100.00
70546;BME280;58098;51.680;5.134;2022-11-20T09:16:33;101260.53;;;-0.81;100.00
70546;BME280;58098;51.680;5.134;2022-11-20T09:18:58;101255.28;;;-0.76;100.00
70546;BME280;58098;51.680;5.134;2022-11-20T09:21:23;101267.56;;;-0.56;100.00
70546;BME280;58098;51.680;5.134;2022-11-20T09:23:49;101246.28;;;-0.58;100.00
70546;BME280;58098;51.680;5.134;2022-11-20T09:26:15;101262.84;;;-0.39;100.00
70546;BME280;58098;51.680;5.134;2022-11-20T09:28:40;101245.63;;;-0.34;100.00
70546;BME280;58098;51.680;5.134;2022-11-20T09:31:07;101242.72;;;-0.24;100.00
70546;BME280;58098;51.680;5.134;2022-11-20T09:33:33;101226.50;;;-0.24;100.00
70546;BME280;58098;51.680;5.134;2022-11-20T09:35:58;101230.28;;;-0.07;100.00
70546;BME280;58098;51.680;5.134;2022-11-20T09:38:23;101233.41;;;0.03;100.00
70546;BME280;58098;51.680;5.134;2022-11-20T09:40:56;101218.06;;;0.02;100.00
70546;BME280;58098;51.680;5.134;2022-11-20T09:43:31;101233.81;;;0.17;100.00
70546;BME280;58098;51.680;5.134;2022-11-20T09:48:46;101219.06;;;0.25;100.00
70546;BME280;58098;51.680;5.134;2022-11-20T09:54:16;101201.63;;;0.36;100.00
70546;BME280;58098;51.680;5.134;2022-11-20T09:56:45;101187.97;;;0.34;100.00
70546;BME280;58098;51.680;5.134;2022-11-20T09:59:43;101201.72;;;0.59;100.00
70546;BME280;58098;51.680;5.134;2022-11-20T10:02:37;101194.63;;;0.68;100.00
70546;BME280;58098;51.680;5.134;2022-11-20T10:05:08;101184.19;;;0.72;100.00
70546;BME280;58098;51.680;5.134;2022-11-20T10:07:41;101186.34;;;0.84;100.00
70546;BME280;58098;51.680;5.134;2022-11-20T10:10:16;101166.66;;;0.85;100.00
70546;BME280;58098;51.680;5.134;2022-11-20T10:24:03;101123.13;;;1.51;100.00
70546;BME280;58098;51.680;5.134;2022-11-20T10:29:35;101127.59;;;1.69;100.00
70546;BME280;58098;51.680;5.134;2022-11-20T10:32:04;101118.06;;;1.71;100.00
70546;BME280;58098;51.680;5.134;2022-11-20T10:34:54;101122.56;;;1.88;100.00
70546;BME280;58098;51.680;5.134;2022-11-20T10:37:24;101114.56;;;1.95;100.00
70546;BME280;58098;51.680;5.134;2022-11-20T10:40:20;101110.50;;;2.12;100.00
70546;BME280;58098;51.680;5.134;2022-11-20T10:42:53;101070.63;;;2.00;100.00
70546;BME280;58098;51.680;5.134;2022-11-20T10:47:50;101089.69;;;2.38;100.00
70546;BME280;58098;51.680;5.134;2022-11-20T10:50:19;101086.19;;;2.39;100.00
70546;BME280;58098;51.680;5.134;2022-11-20T10:53:16;101080.72;;;2.46;100.00
70546;BME280;58098;51.680;5.134;2022-11-20T10:56:09;101074.16;;;2.39;100.00
70546;BME280;58098;51.680;5.134;2022-11-20T11:01:19;101078.91;;;2.48;100.00
70546;BME280;58098;51.680;5.134;2022-11-20T11:03:48;101065.16;;;2.49;100.00
70546;BME280;58098;51.680;5.134;2022-11-20T11:06:36;101048.84;;;2.49;100.00
70546;BME280;58098;51.680;5.134;2022-11-20T11:09:11;101051.09;;;2.56;100.00
70546;BME280;58098;51.680;5.134;2022-11-20T11:11:38;101056.72;;;2.66;100.00
70546;BME280;58098;51.680;5.134;2022-11-20T11:17:26;101064.50;;;2.64;100.00
70546;BME280;58098;51.680;5.134;2022-11-20T11:23:00;101054.00;;;2.69;100.00
70546;BME280;58098;51.680;5.134;2022-11-20T11:25:33;101052.13;;;2.73;100.00
70546;BME280;58098;51.680;5.134;2022-11-20T11:28:03;101042.53;;;2.76;100.00
70546;BME280;58098;51.680;5.134;2022-11-20T11:30:40;101045.03;;;2.78;100.00
70546;BME280;58098;51.680;5.134;2022-11-20T11:33:10;101029.84;;;2.72;100.00
70546;BME280;58098;51.680;5.134;2022-11-20T11:35:43;101025.13;;;2.81;100.00
70546;BME280;58098;51.680;5.134;2022-11-20T11:38:16;101010.50;;;2.82;100.00
70546;BME280;58098;51.680;5.134;2022-11-20T11:40:43;101021.94;;;2.95;100.00
70546;BME280;58098;51.680;5.134;2022-11-20T11:43:18;101009.69;;;3.00;100.00
70546;BME280;58098;51.680;5.134;2022-11-20T11:51:30;100970.53;;;3.10;100.00
70546;BME280;58098;51.680;5.134;2022-11-20T11:53:58;100933.50;;;2.94;100.00
70546;BME280;58098;51.680;5.134;2022-11-20T11:56:25;100951.44;;;3.14;100.00
70546;BME280;58098;51.680;5.134;2022-11-20T11:58:51;100927.47;;;3.12;100.00
70546;BME280;58098;51.680;5.134;2022-11-20T12:04:05;100944.97;;;3.42;100.00
70546;BME280;58098;51.680;5.134;2022-11-20T12:06:39;100943.88;;;3.47;100.00
70546;BME280;58098;51.680;5.134;2022-11-20T12:09:10;100909.81;;;3.41;100.00
70546;BME280;58098;51.680;5.134;2022-11-20T12:11:46;100928.63;;;3.60;100.00
70546;BME280;58098;51.680;5.134;2022-11-20T12:14:19;100928.47;;;3.63;100.00
70546;BME280;58098;51.680;5.134;2022-11-20T12:16:49;100927.72;;;3.61;100.00
70546;BME280;58098;51.680;5.134;2022-11-20T12:19:15;100913.16;;;3.60;100.00
70546;BME280;58098;51.680;5.134;2022-11-20T12:44:34;100890.81;;;3.93;100.00
70546;BME280;58098;51.680;5.134;2022-11-20T12:52:51;100858.38;;;4.05;100.00
70546;BME280;58098;51.680;5.134;2022-11-20T12:55:28;100858.91;;;4.11;100.00
70546;BME280;58098;51.680;5.134;2022-11-20T12:58:20;100838.25;;;4.11;100.00
70546;BME280;58098;51.680;5.134;2022-11-20T13:01:17;100833.69;;;4.32;100.00
70546;BME280;58098;51.680;5.134;2022-11-20T13:04:39;100819.47;;;4.40;100.00
70546;BME280;58098;51.680;5.134;2022-11-20T13:07:12;100828.28;;;4.36;100.00
70546;BME280;58098;51.680;5.134;2022-11-20T13:09:44;100811.13;;;4.35;100.00
70546;BME280;58098;51.680;5.134;2022-11-20T13:17:59;100802.63;;;4.33;100.00
70546;BME280;58098;51.680;5.134;2022-11-20T13:20:25;100795.88;;;4.31;100.00
70546;BME280;58098;51.680;5.134;2022-11-20T13:22:53;100782.63;;;4.21;100.00
70546;BME280;58098;51.680;5.134;2022-11-20T13:27:52;100792.47;;;4.30;100.00
70546;BME280;58098;51.680;5.134;2022-11-20T13:30:22;100785.31;;;4.35;100.00
70546;BME280;58098;51.680;5.134;2022-11-20T13:33:02;100784.38;;;4.36;100.00
70546;BME280;58098;51.680;5.134;2022-11-20T13:35:35;100781.63;;;4.39;100.00
70546;BME280;58098;51.680;5.134;2022-11-20T13:38:09;100776.63;;;4.36;100.00
70546;BME280;58098;51.680;5.134;2022-11-20T13:40:37;100758.66;;;4.35;100.00
70546;BME280;58098;51.680;5.134;2022-11-20T13:46:04;100752.13;;;4.43;100.00
70546;BME280;58098;51.680;5.134;2022-11-20T13:48:33;100757.72;;;4.51;100.00
70546;BME280;58098;51.680;5.134;2022-11-20T13:51:14;100750.63;;;4.55;100.00
70546;BME280;58098;51.680;5.134;2022-11-20T13:58:51;100721.13;;;4.43;100.00
70546;BME280;58098;51.680;5.134;2022-11-20T14:01:28;100735.38;;;4.50;100.00
70546;BME280;58098;51.680;5.134;2022-11-20T14:03:54;100739.78;;;4.48;100.00
70546;BME280;58098;51.680;5.134;2022-11-20T14:06:29;100736.47;;;4.46;100.00
70546;BME280;58098;51.680;5.134;2022-11-20T14:08:55;100724.38;;;4.31;100.00
70546;BME280;58098;51.680;5.134;2022-11-20T14:11:25;100708.50;;;4.23;100.00
70546;BME280;58098;51.680;5.134;2022-11-20T14:13:56;100718.63;;;4.26;100.00
70546;BME280;58098;51.680;5.134;2022-11-20T14:16:23;100712.25;;;4.18;100.00